sensor_id;sensor_type;location;lat;lon;timestamp;P1;durP1;ratioP1;P2;durP2;ratioP2
17451;SDS011;8843;48.838;9.324;2023-07-29T00:01:23;2.17;;;1.33;;
17451;SDS011;8843;48.838;9.324;2023-07-29T00:03:50;1.97;;;1.67;;
17451;SDS011;8843;48.838;9.324;2023-07-29T00:06:17;1.87;;;1.27;;
17451;SDS011;8843;48.838;9.324;2023-07-29T00:08:45;6.20;;;1.67;;
17451;SDS011;8843;48.838;9.324;2023-07-29T00:11:12;1.80;;;1.67;;
17451;SDS011;8843;48.838;9.324;2023-07-29T00:13:39;1.57;;;1.47;;
17451;SDS011;8843;48.838;9.324;2023-07-29T00:16:06;1.90;;;1.80;;
17451;SDS011;8843;48.838;9.324;2023-07-29T00:18:33;1.93;;;1.67;;
17451;SDS011;8843;48.838;9.324;2023-07-29T00:20:59;2.27;;;1.70;;
17451;SDS011;8843;48.838;9.324;2023-07-29T00:23:26;3.63;;;1.40;;
17451;SDS011;8843;48.838;9.324;2023-07-29T00:25:55;2.30;;;1.40;;
17451;SDS011;8843;48.838;9.324;2023-07-29T00:28:22;4.23;;;1.60;;
17451;SDS011;8843;48.838;9.324;2023-07-29T00:30:48;5.73;;;1.40;;
17451;SDS011;8843;48.838;9.324;2023-07-29T00:33:15;1.30;;;1.20;;
17451;SDS011;8843;48.838;9.324;2023-07-29T00:35:42;4.00;;;1.70;;
17451;SDS011;8843;48.838;9.324;2023-07-29T00:38:09;2.57;;;1.23;;
17451;SDS011;8843;48.838;9.324;2023-07-29T00:40:36;2.20;;;1.30;;
17451;SDS011;8843;48.838;9.324;2023-07-29T00:43:04;1.30;;;1.20;;
17451;SDS011;8843;48.838;9.324;2023-07-29T00:45:31;1.70;;;1.40;;
17451;SDS011;8843;48.838;9.324;2023-07-29T00:47:59;1.40;;;1.30;;
17451;SDS011;8843;48.838;9.324;2023-07-29T00:50:27;1.27;;;1.17;;
17451;SDS011;8843;48.838;9.324;2023-07-29T00:52:55;2.17;;;1.30;;
17451;SDS011;8843;48.838;9.324;2023-07-29T00:55:22;1.93;;;1.50;;
17451;SDS011;8843;48.838;9.324;2023-07-29T00:57:50;1.80;;;1.70;;
17451;SDS011;8843;48.838;9.324;2023-07-29T01:00:20;1.77;;;1.60;;
17451;SDS011;8843;48.838;9.324;2023-07-29T01:02:48;3.53;;;1.40;;
17451;SDS011;8843;48.838;9.324;2023-07-29T01:05:15;2.10;;;1.90;;
17451;SDS011;8843;48.838;9.324;2023-07-29T01:07:44;1.50;;;1.20;;
17451;SDS011;8843;48.838;9.324;2023-07-29T01:10:19;1.30;;;1.20;;
17451;SDS011;8843;48.838;9.324;2023-07-29T01:12:55;1.40;;;1.30;;
17451;SDS011;8843;48.838;9.324;2023-07-29T01:15:31;4.93;;;1.40;;
17451;SDS011;8843;48.838;9.324;2023-07-29T01:18:06;1.40;;;1.30;;
17451;SDS011;8843;48.838;9.324;2023-07-29T01:20:37;1.63;;;1.30;;
17451;SDS011;8843;48.838;9.324;2023-07-29T01:23:06;2.33;;;1.13;;
17451;SDS011;8843;48.838;9.324;2023-07-29T01:25:34;1.30;;;1.20;;
17451;SDS011;8843;48.838;9.324;2023-07-29T01:28:01;4.33;;;1.53;;
17451;SDS011;8843;48.838;9.324;2023-07-29T01:30:29;1.40;;;1.30;;
17451;SDS011;8843;48.838;9.324;2023-07-29T01:32:59;1.80;;;1.20;;
17451;SDS011;8843;48.838;9.324;2023-07-29T01:35:31;2.00;;;1.40;;
17451;SDS011;8843;48.838;9.324;2023-07-29T01:38:03;2.03;;;1.40;;
17451;SDS011;8843;48.838;9.324;2023-07-29T01:40:33;2.30;;;1.40;;
17451;SDS011;8843;48.838;9.324;2023-07-29T01:43:01;2.83;;;1.57;;
17451;SDS011;8843;48.838;9.324;2023-07-29T01:45:28;1.50;;;1.40;;
17451;SDS011;8843;48.838;9.324;2023-07-29T01:48:00;2.43;;;1.60;;
17451;SDS011;8843;48.838;9.324;2023-07-29T01:50:27;1.47;;;1.37;;
17451;SDS011;8843;48.838;9.324;2023-07-29T01:52:54;2.87;;;1.57;;
17451;SDS011;8843;48.838;9.324;2023-07-29T01:55:21;2.13;;;1.47;;
17451;SDS011;8843;48.838;9.324;2023-07-29T01:57:49;1.50;;;1.40;;
17451;SDS011;8843;48.838;9.324;2023-07-29T02:00:16;2.00;;;1.60;;
17451;SDS011;8843;48.838;9.324;2023-07-29T02:02:44;3.50;;;1.50;;
17451;SDS011;8843;48.838;9.324;2023-07-29T02:05:11;2.33;;;1.30;;
17451;SDS011;8843;48.838;9.324;2023-07-29T02:07:37;3.87;;;1.40;;
17451;SDS011;8843;48.838;9.324;2023-07-29T02:10:05;2.83;;;1.50;;
17451;SDS011;8843;48.838;9.324;2023-07-29T02:12:32;1.53;;;1.27;;
17451;SDS011;8843;48.838;9.324;2023-07-29T02:15:01;1.40;;;1.30;;
17451;SDS011;8843;48.838;9.324;2023-07-29T02:17:27;2.13;;;1.30;;
17451;SDS011;8843;48.838;9.324;2023-07-29T02:19:54;2.33;;;1.30;;
17451;SDS011;8843;48.838;9.324;2023-07-29T02:22:21;1.40;;;1.20;;
17451;SDS011;8843;48.838;9.324;2023-07-29T02:24:48;2.13;;;1.60;;
17451;SDS011;8843;48.838;9.324;2023-07-29T02:27:15;1.23;;;1.20;;
17451;SDS011;8843;48.838;9.324;2023-07-29T02:29:42;3.03;;;1.40;;
17451;SDS011;8843;48.838;9.324;2023-07-29T02:32:10;2.13;;;1.23;;
17451;SDS011;8843;48.838;9.324;2023-07-29T02:34:37;1.30;;;1.20;;
17451;SDS011;8843;48.838;9.324;2023-07-29T02:37:04;1.30;;;1.20;;
17451;SDS011;8843;48.838;9.324;2023-07-29T02:39:31;1.67;;;1.40;;
17451;SDS011;8843;48.838;9.324;2023-07-29T02:41:58;2.03;;;1.40;;
17451;SDS011;8843;48.838;9.324;2023-07-29T02:44:25;3.53;;;1.50;;
17451;SDS011;8843;48.838;9.324;2023-07-29T02:46:51;1.23;;;1.20;;
17451;SDS011;8843;48.838;9.324;2023-07-29T02:49:22;3.57;;;1.50;;
17451;SDS011;8843;48.838;9.324;2023-07-29T02:51:49;1.20;;;1.13;;
17451;SDS011;8843;48.838;9.324;2023-07-29T02:54:16;3.83;;;1.60;;
17451;SDS011;8843;48.838;9.324;2023-07-29T02:56:42;1.30;;;1.20;;
17451;SDS011;8843;48.838;9.324;2023-07-29T02:59:09;2.50;;;1.70;;
17451;SDS011;8843;48.838;9.324;2023-07-29T03:01:36;2.40;;;1.67;;
17451;SDS011;8843;48.838;9.324;2023-07-29T03:04:03;2.70;;;1.67;;
17451;SDS011;8843;48.838;9.324;2023-07-29T03:06:31;2.43;;;1.60;;
17451;SDS011;8843;48.838;9.324;2023-07-29T03:08:58;3.30;;;1.60;;
17451;SDS011;8843;48.838;9.324;2023-07-29T03:11:25;1.47;;;1.37;;
17451;SDS011;8843;48.838;9.324;2023-07-29T03:13:52;3.23;;;1.63;;
17451;SDS011;8843;48.838;9.324;2023-07-29T03:16:19;2.80;;;1.33;;
17451;SDS011;8843;48.838;9.324;2023-07-29T03:18:46;3.80;;;1.63;;
17451;SDS011;8843;48.838;9.324;2023-07-29T03:21:15;3.63;;;1.60;;
17451;SDS011;8843;48.838;9.324;2023-07-29T03:23:43;2.83;;;1.67;;
17451;SDS011;8843;48.838;9.324;2023-07-29T03:26:10;4.13;;;2.60;;
17451;SDS011;8843;48.838;9.324;2023-07-29T03:28:37;2.70;;;1.50;;
17451;SDS011;8843;48.838;9.324;2023-07-29T03:31:05;2.40;;;1.63;;
17451;SDS011;8843;48.838;9.324;2023-07-29T03:33:32;2.13;;;1.70;;
17451;SDS011;8843;48.838;9.324;2023-07-29T03:35:59;3.00;;;1.50;;
17451;SDS011;8843;48.838;9.324;2023-07-29T03:38:26;4.17;;;1.53;;
17451;SDS011;8843;48.838;9.324;2023-07-29T03:40:54;1.50;;;1.40;;
17451;SDS011;8843;48.838;9.324;2023-07-29T03:43:21;2.03;;;1.50;;
17451;SDS011;8843;48.838;9.324;2023-07-29T03:45:48;2.60;;;1.70;;
17451;SDS011;8843;48.838;9.324;2023-07-29T03:48:15;2.97;;;1.90;;
17451;SDS011;8843;48.838;9.324;2023-07-29T03:50:42;1.70;;;1.60;;
17451;SDS011;8843;48.838;9.324;2023-07-29T03:53:08;2.07;;;1.73;;
17451;SDS011;8843;48.838;9.324;2023-07-29T03:55:36;2.67;;;1.30;;
17451;SDS011;8843;48.838;9.324;2023-07-29T03:58:04;3.10;;;1.57;;
17451;SDS011;8843;48.838;9.324;2023-07-29T04:00:31;1.80;;;1.67;;
17451;SDS011;8843;48.838;9.324;2023-07-29T04:02:58;3.63;;;1.73;;
17451;SDS011;8843;48.838;9.324;2023-07-29T04:05:25;3.07;;;1.47;;
17451;SDS011;8843;48.838;9.324;2023-07-29T04:07:52;2.17;;;1.77;;
17451;SDS011;8843;48.838;9.324;2023-07-29T04:10:20;1.87;;;1.40;;
17451;SDS011;8843;48.838;9.324;2023-07-29T04:12:46;2.57;;;1.37;;
17451;SDS011;8843;48.838;9.324;2023-07-29T04:15:15;6.63;;;2.60;;
17451;SDS011;8843;48.838;9.324;2023-07-29T04:17:42;9.57;;;3.13;;
17451;SDS011;8843;48.838;9.324;2023-07-29T04:20:09;3.97;;;1.63;;
17451;SDS011;8843;48.838;9.324;2023-07-29T04:22:37;7.60;;;2.00;;
17451;SDS011;8843;48.838;9.324;2023-07-29T04:25:04;3.07;;;1.70;;
17451;SDS011;8843;48.838;9.324;2023-07-29T04:27:32;3.30;;;2.23;;
17451;SDS011;8843;48.838;9.324;2023-07-29T04:29:59;2.87;;;1.80;;
17451;SDS011;8843;48.838;9.324;2023-07-29T04:32:27;2.93;;;1.60;;
17451;SDS011;8843;48.838;9.324;2023-07-29T04:34:54;2.33;;;1.77;;
17451;SDS011;8843;48.838;9.324;2023-07-29T04:37:20;1.60;;;1.40;;
17451;SDS011;8843;48.838;9.324;2023-07-29T04:39:47;2.10;;;1.50;;
17451;SDS011;8843;48.838;9.324;2023-07-29T04:42:14;2.90;;;1.67;;
17451;SDS011;8843;48.838;9.324;2023-07-29T04:44:41;2.20;;;1.73;;
17451;SDS011;8843;48.838;9.324;2023-07-29T04:47:08;1.87;;;1.40;;
17451;SDS011;8843;48.838;9.324;2023-07-29T04:49:37;1.97;;;1.77;;
17451;SDS011;8843;48.838;9.324;2023-07-29T04:52:04;2.27;;;1.93;;
17451;SDS011;8843;48.838;9.324;2023-07-29T04:54:31;5.07;;;1.80;;
17451;SDS011;8843;48.838;9.324;2023-07-29T04:56:58;3.83;;;1.80;;
17451;SDS011;8843;48.838;9.324;2023-07-29T04:59:25;1.47;;;1.37;;
17451;SDS011;8843;48.838;9.324;2023-07-29T05:01:52;11.03;;;2.07;;
17451;SDS011;8843;48.838;9.324;2023-07-29T05:04:19;3.50;;;1.83;;
17451;SDS011;8843;48.838;9.324;2023-07-29T05:06:47;3.47;;;1.60;;
17451;SDS011;8843;48.838;9.324;2023-07-29T05:09:15;1.93;;;1.57;;
17451;SDS011;8843;48.838;9.324;2023-07-29T05:11:45;3.43;;;1.60;;
17451;SDS011;8843;48.838;9.324;2023-07-29T05:14:12;3.47;;;2.00;;
17451;SDS011;8843;48.838;9.324;2023-07-29T05:16:39;6.07;;;2.23;;
17451;SDS011;8843;48.838;9.324;2023-07-29T05:19:06;2.43;;;1.73;;
17451;SDS011;8843;48.838;9.324;2023-07-29T05:21:33;3.03;;;1.93;;
17451;SDS011;8843;48.838;9.324;2023-07-29T05:24:01;3.83;;;2.00;;
17451;SDS011;8843;48.838;9.324;2023-07-29T05:26:29;2.23;;;1.77;;
17451;SDS011;8843;48.838;9.324;2023-07-29T05:28:55;2.37;;;1.70;;
17451;SDS011;8843;48.838;9.324;2023-07-29T05:31:22;4.77;;;2.37;;
17451;SDS011;8843;48.838;9.324;2023-07-29T05:33:49;1.77;;;1.60;;
17451;SDS011;8843;48.838;9.324;2023-07-29T05:36:16;3.10;;;1.60;;
17451;SDS011;8843;48.838;9.324;2023-07-29T05:38:43;1.87;;;1.70;;
17451;SDS011;8843;48.838;9.324;2023-07-29T05:41:11;1.73;;;1.50;;
17451;SDS011;8843;48.838;9.324;2023-07-29T05:43:38;1.67;;;1.50;;
17451;SDS011;8843;48.838;9.324;2023-07-29T05:46:05;4.27;;;1.70;;
17451;SDS011;8843;48.838;9.324;2023-07-29T05:48:32;2.53;;;2.00;;
17451;SDS011;8843;48.838;9.324;2023-07-29T05:50:59;3.03;;;1.67;;
17451;SDS011;8843;48.838;9.324;2023-07-29T05:53:25;1.57;;;1.47;;
17451;SDS011;8843;48.838;9.324;2023-07-29T05:55:52;1.47;;;1.37;;
17451;SDS011;8843;48.838;9.324;2023-07-29T05:58:21;1.50;;;1.40;;
17451;SDS011;8843;48.838;9.324;2023-07-29T06:00:47;1.80;;;1.60;;
17451;SDS011;8843;48.838;9.324;2023-07-29T06:03:14;1.73;;;1.60;;
17451;SDS011;8843;48.838;9.324;2023-07-29T06:05:41;2.90;;;1.80;;
17451;SDS011;8843;48.838;9.324;2023-07-29T06:08:08;2.40;;;1.73;;
17451;SDS011;8843;48.838;9.324;2023-07-29T06:10:35;2.20;;;2.00;;
17451;SDS011;8843;48.838;9.324;2023-07-29T06:13:02;2.67;;;2.03;;
17451;SDS011;8843;48.838;9.324;2023-07-29T06:15:31;2.70;;;1.80;;
17451;SDS011;8843;48.838;9.324;2023-07-29T06:17:57;3.50;;;2.13;;
17451;SDS011;8843;48.838;9.324;2023-07-29T06:20:24;2.43;;;2.23;;
17451;SDS011;8843;48.838;9.324;2023-07-29T06:22:51;2.13;;;1.93;;
17451;SDS011;8843;48.838;9.324;2023-07-29T06:25:18;2.40;;;2.20;;
17451;SDS011;8843;48.838;9.324;2023-07-29T06:27:45;2.83;;;2.03;;
17451;SDS011;8843;48.838;9.324;2023-07-29T06:30:12;3.20;;;2.33;;
17451;SDS011;8843;48.838;9.324;2023-07-29T06:32:40;2.03;;;1.83;;
17451;SDS011;8843;48.838;9.324;2023-07-29T06:35:07;3.20;;;2.90;;
17451;SDS011;8843;48.838;9.324;2023-07-29T06:37:34;2.10;;;1.90;;
17451;SDS011;8843;48.838;9.324;2023-07-29T06:40:01;3.70;;;2.00;;
17451;SDS011;8843;48.838;9.324;2023-07-29T06:42:28;1.97;;;1.77;;
17451;SDS011;8843;48.838;9.324;2023-07-29T06:44:55;2.17;;;1.97;;
17451;SDS011;8843;48.838;9.324;2023-07-29T06:47:22;2.33;;;2.13;;
17451;SDS011;8843;48.838;9.324;2023-07-29T06:49:50;5.40;;;3.00;;
17451;SDS011;8843;48.838;9.324;2023-07-29T06:52:17;2.50;;;2.30;;
17451;SDS011;8843;48.838;9.324;2023-07-29T06:54:44;3.07;;;2.77;;
17451;SDS011;8843;48.838;9.324;2023-07-29T06:57:11;3.30;;;2.97;;
17451;SDS011;8843;48.838;9.324;2023-07-29T06:59:38;2.93;;;2.47;;
17451;SDS011;8843;48.838;9.324;2023-07-29T07:02:05;5.17;;;2.93;;
17451;SDS011;8843;48.838;9.324;2023-07-29T07:04:33;6.10;;;3.50;;
17451;SDS011;8843;48.838;9.324;2023-07-29T07:07:01;3.87;;;2.83;;
17451;SDS011;8843;48.838;9.324;2023-07-29T07:09:28;2.50;;;2.23;;
17451;SDS011;8843;48.838;9.324;2023-07-29T07:11:54;4.73;;;3.00;;
17451;SDS011;8843;48.838;9.324;2023-07-29T07:14:21;2.63;;;2.43;;
17451;SDS011;8843;48.838;9.324;2023-07-29T07:16:48;2.77;;;2.43;;
17451;SDS011;8843;48.838;9.324;2023-07-29T07:19:15;2.37;;;2.03;;
17451;SDS011;8843;48.838;9.324;2023-07-29T07:21:42;3.73;;;1.70;;
17451;SDS011;8843;48.838;9.324;2023-07-29T07:24:10;2.83;;;2.10;;
17451;SDS011;8843;48.838;9.324;2023-07-29T07:26:37;4.60;;;2.00;;
17451;SDS011;8843;48.838;9.324;2023-07-29T07:29:04;4.20;;;1.80;;
17451;SDS011;8843;48.838;9.324;2023-07-29T07:31:32;3.37;;;2.00;;
17451;SDS011;8843;48.838;9.324;2023-07-29T07:33:59;3.47;;;2.10;;
17451;SDS011;8843;48.838;9.324;2023-07-29T07:36:27;3.90;;;1.57;;
17451;SDS011;8843;48.838;9.324;2023-07-29T07:38:54;2.20;;;2.00;;
17451;SDS011;8843;48.838;9.324;2023-07-29T07:41:22;2.53;;;2.00;;
17451;SDS011;8843;48.838;9.324;2023-07-29T07:43:50;2.50;;;1.77;;
17451;SDS011;8843;48.838;9.324;2023-07-29T07:46:16;2.07;;;1.73;;
17451;SDS011;8843;48.838;9.324;2023-07-29T07:48:43;2.37;;;1.93;;
17451;SDS011;8843;48.838;9.324;2023-07-29T07:51:10;1.73;;;1.60;;
17451;SDS011;8843;48.838;9.324;2023-07-29T07:53:38;4.27;;;1.93;;
17451;SDS011;8843;48.838;9.324;2023-07-29T07:56:05;2.77;;;2.13;;
17451;SDS011;8843;48.838;9.324;2023-07-29T07:58:33;2.47;;;1.93;;
17451;SDS011;8843;48.838;9.324;2023-07-29T08:01:01;2.93;;;2.27;;
17451;SDS011;8843;48.838;9.324;2023-07-29T08:03:29;2.30;;;2.07;;
17451;SDS011;8843;48.838;9.324;2023-07-29T08:05:56;3.07;;;2.50;;
17451;SDS011;8843;48.838;9.324;2023-07-29T08:08:22;2.67;;;2.10;;
17451;SDS011;8843;48.838;9.324;2023-07-29T08:10:49;3.37;;;2.30;;
17451;SDS011;8843;48.838;9.324;2023-07-29T08:13:16;2.57;;;2.33;;
17451;SDS011;8843;48.838;9.324;2023-07-29T08:15:46;2.60;;;2.40;;
17451;SDS011;8843;48.838;9.324;2023-07-29T08:18:14;4.67;;;2.40;;
17451;SDS011;8843;48.838;9.324;2023-07-29T08:20:41;3.10;;;2.80;;
17451;SDS011;8843;48.838;9.324;2023-07-29T08:23:17;6.00;;;2.53;;
17451;SDS011;8843;48.838;9.324;2023-07-29T08:25:44;5.20;;;2.60;;
17451;SDS011;8843;48.838;9.324;2023-07-29T08:28:11;3.47;;;2.70;;
17451;SDS011;8843;48.838;9.324;2023-07-29T08:30:38;4.03;;;2.67;;
17451;SDS011;8843;48.838;9.324;2023-07-29T08:33:06;6.23;;;2.30;;
17451;SDS011;8843;48.838;9.324;2023-07-29T08:35:33;3.17;;;2.37;;
17451;SDS011;8843;48.838;9.324;2023-07-29T08:38:00;5.97;;;2.60;;
17451;SDS011;8843;48.838;9.324;2023-07-29T08:40:27;2.33;;;2.13;;
17451;SDS011;8843;48.838;9.324;2023-07-29T08:42:55;3.83;;;2.10;;
17451;SDS011;8843;48.838;9.324;2023-07-29T08:45:24;2.23;;;2.03;;
17451;SDS011;8843;48.838;9.324;2023-07-29T08:47:52;3.93;;;2.20;;
17451;SDS011;8843;48.838;9.324;2023-07-29T08:50:25;2.43;;;2.23;;
17451;SDS011;8843;48.838;9.324;2023-07-29T08:52:52;3.53;;;2.07;;
17451;SDS011;8843;48.838;9.324;2023-07-29T08:55:20;3.57;;;2.70;;
17451;SDS011;8843;48.838;9.324;2023-07-29T08:57:47;5.20;;;2.80;;
17451;SDS011;8843;48.838;9.324;2023-07-29T09:00:15;3.70;;;2.50;;
17451;SDS011;8843;48.838;9.324;2023-07-29T09:02:42;3.60;;;2.60;;
17451;SDS011;8843;48.838;9.324;2023-07-29T09:05:09;3.00;;;2.50;;
17451;SDS011;8843;48.838;9.324;2023-07-29T09:07:37;2.73;;;2.53;;
17451;SDS011;8843;48.838;9.324;2023-07-29T09:10:08;3.60;;;2.77;;
17451;SDS011;8843;48.838;9.324;2023-07-29T09:12:36;5.73;;;3.03;;
17451;SDS011;8843;48.838;9.324;2023-07-29T09:15:03;9.60;;;3.63;;
17451;SDS011;8843;48.838;9.324;2023-07-29T09:17:31;5.13;;;2.90;;
17451;SDS011;8843;48.838;9.324;2023-07-29T09:19:58;4.40;;;3.83;;
17451;SDS011;8843;48.838;9.324;2023-07-29T09:22:26;4.67;;;3.40;;
17451;SDS011;8843;48.838;9.324;2023-07-29T09:24:55;5.07;;;4.23;;
17451;SDS011;8843;48.838;9.324;2023-07-29T09:27:24;7.67;;;3.30;;
17451;SDS011;8843;48.838;9.324;2023-07-29T09:29:52;4.53;;;4.00;;
17451;SDS011;8843;48.838;9.324;2023-07-29T09:32:19;4.57;;;3.80;;
17451;SDS011;8843;48.838;9.324;2023-07-29T09:34:47;5.77;;;4.33;;
17451;SDS011;8843;48.838;9.324;2023-07-29T09:37:17;5.57;;;4.67;;
17451;SDS011;8843;48.838;9.324;2023-07-29T09:39:48;5.57;;;4.03;;
17451;SDS011;8843;48.838;9.324;2023-07-29T09:42:18;4.30;;;3.37;;
17451;SDS011;8843;48.838;9.324;2023-07-29T09:44:46;3.33;;;2.70;;
17451;SDS011;8843;48.838;9.324;2023-07-29T09:47:24;3.30;;;2.57;;
17451;SDS011;8843;48.838;9.324;2023-07-29T09:49:52;3.63;;;2.47;;
17451;SDS011;8843;48.838;9.324;2023-07-29T09:52:20;2.10;;;1.90;;
17451;SDS011;8843;48.838;9.324;2023-07-29T09:54:48;3.60;;;2.00;;
17451;SDS011;8843;48.838;9.324;2023-07-29T09:57:16;2.10;;;1.90;;
17451;SDS011;8843;48.838;9.324;2023-07-29T09:59:53;2.13;;;1.80;;
17451;SDS011;8843;48.838;9.324;2023-07-29T10:02:20;3.03;;;1.83;;
17451;SDS011;8843;48.838;9.324;2023-07-29T10:04:47;3.07;;;1.70;;
17451;SDS011;8843;48.838;9.324;2023-07-29T10:07:15;2.53;;;1.57;;
17451;SDS011;8843;48.838;9.324;2023-07-29T10:09:43;3.13;;;1.87;;
17451;SDS011;8843;48.838;9.324;2023-07-29T10:12:11;4.13;;;1.87;;
17451;SDS011;8843;48.838;9.324;2023-07-29T10:14:40;1.77;;;1.67;;
17451;SDS011;8843;48.838;9.324;2023-07-29T10:17:08;2.13;;;1.53;;
17451;SDS011;8843;48.838;9.324;2023-07-29T10:19:36;1.70;;;1.40;;
17451;SDS011;8843;48.838;9.324;2023-07-29T10:22:04;1.63;;;1.47;;
17451;SDS011;8843;48.838;9.324;2023-07-29T10:24:32;2.40;;;1.40;;
17451;SDS011;8843;48.838;9.324;2023-07-29T10:27:00;2.90;;;1.60;;
17451;SDS011;8843;48.838;9.324;2023-07-29T10:29:29;4.67;;;1.67;;
17451;SDS011;8843;48.838;9.324;2023-07-29T10:32:00;1.70;;;1.60;;
17451;SDS011;8843;48.838;9.324;2023-07-29T10:34:29;1.97;;;1.40;;
17451;SDS011;8843;48.838;9.324;2023-07-29T10:36:57;1.77;;;1.67;;
17451;SDS011;8843;48.838;9.324;2023-07-29T10:39:25;3.57;;;1.53;;
17451;SDS011;8843;48.838;9.324;2023-07-29T10:41:56;3.63;;;1.70;;
17451;SDS011;8843;48.838;9.324;2023-07-29T10:47:16;2.33;;;1.90;;
17451;SDS011;8843;48.838;9.324;2023-07-29T10:49:43;1.57;;;1.30;;
17451;SDS011;8843;48.838;9.324;2023-07-29T10:52:12;2.00;;;1.20;;
17451;SDS011;8843;48.838;9.324;2023-07-29T10:54:44;1.77;;;1.60;;
17451;SDS011;8843;48.838;9.324;2023-07-29T10:57:15;2.27;;;1.43;;
17451;SDS011;8843;48.838;9.324;2023-07-29T10:59:53;1.80;;;1.47;;
17451;SDS011;8843;48.838;9.324;2023-07-29T11:02:28;1.47;;;1.37;;
17451;SDS011;8843;48.838;9.324;2023-07-29T11:04:55;1.40;;;1.30;;
17451;SDS011;8843;48.838;9.324;2023-07-29T11:07:26;1.57;;;1.47;;
17451;SDS011;8843;48.838;9.324;2023-07-29T11:09:54;1.30;;;1.20;;
17451;SDS011;8843;48.838;9.324;2023-07-29T11:12:43;1.07;;;1.07;;
17451;SDS011;8843;48.838;9.324;2023-07-29T11:15:17;1.50;;;1.40;;
17451;SDS011;8843;48.838;9.324;2023-07-29T11:17:47;1.57;;;1.30;;
17451;SDS011;8843;48.838;9.324;2023-07-29T11:20:15;1.30;;;1.20;;
17451;SDS011;8843;48.838;9.324;2023-07-29T11:22:43;1.93;;;1.23;;
17451;SDS011;8843;48.838;9.324;2023-07-29T11:25:10;1.70;;;1.20;;
17451;SDS011;8843;48.838;9.324;2023-07-29T11:27:38;1.57;;;1.47;;
17451;SDS011;8843;48.838;9.324;2023-07-29T11:30:07;1.57;;;1.47;;
17451;SDS011;8843;48.838;9.324;2023-07-29T11:32:35;2.70;;;1.73;;
17451;SDS011;8843;48.838;9.324;2023-07-29T11:35:04;1.10;;;1.10;;
17451;SDS011;8843;48.838;9.324;2023-07-29T11:37:33;1.43;;;1.33;;
17451;SDS011;8843;48.838;9.324;2023-07-29T11:40:00;1.40;;;1.30;;
17451;SDS011;8843;48.838;9.324;2023-07-29T11:42:28;1.33;;;1.23;;
17451;SDS011;8843;48.838;9.324;2023-07-29T11:44:58;1.73;;;1.63;;
17451;SDS011;8843;48.838;9.324;2023-07-29T11:47:25;1.90;;;1.30;;
17451;SDS011;8843;48.838;9.324;2023-07-29T11:49:52;1.93;;;1.20;;
17451;SDS011;8843;48.838;9.324;2023-07-29T11:52:20;1.50;;;1.40;;
17451;SDS011;8843;48.838;9.324;2023-07-29T11:54:48;1.47;;;1.37;;
17451;SDS011;8843;48.838;9.324;2023-07-29T11:57:15;5.77;;;1.70;;
17451;SDS011;8843;48.838;9.324;2023-07-29T11:59:43;1.83;;;1.47;;
17451;SDS011;8843;48.838;9.324;2023-07-29T12:02:11;1.77;;;1.30;;
17451;SDS011;8843;48.838;9.324;2023-07-29T12:04:39;1.30;;;1.20;;
17451;SDS011;8843;48.838;9.324;2023-07-29T12:07:07;2.60;;;1.43;;
17451;SDS011;8843;48.838;9.324;2023-07-29T12:09:36;1.20;;;1.10;;
17451;SDS011;8843;48.838;9.324;2023-07-29T12:12:04;1.20;;;1.20;;
17451;SDS011;8843;48.838;9.324;2023-07-29T12:14:32;3.30;;;1.77;;
17451;SDS011;8843;48.838;9.324;2023-07-29T12:16:59;1.30;;;1.20;;
17451;SDS011;8843;48.838;9.324;2023-07-29T12:19:31;1.60;;;1.40;;
17451;SDS011;8843;48.838;9.324;2023-07-29T12:21:59;1.50;;;1.40;;
17451;SDS011;8843;48.838;9.324;2023-07-29T12:24:26;1.73;;;1.50;;
17451;SDS011;8843;48.838;9.324;2023-07-29T12:26:54;1.80;;;1.40;;
17451;SDS011;8843;48.838;9.324;2023-07-29T12:29:21;2.37;;;1.60;;
17451;SDS011;8843;48.838;9.324;2023-07-29T12:31:48;1.40;;;1.30;;
17451;SDS011;8843;48.838;9.324;2023-07-29T12:34:24;2.53;;;1.30;;
17451;SDS011;8843;48.838;9.324;2023-07-29T12:36:52;2.40;;;1.60;;
17451;SDS011;8843;48.838;9.324;2023-07-29T12:39:20;2.03;;;1.67;;
17451;SDS011;8843;48.838;9.324;2023-07-29T12:41:49;2.73;;;1.43;;
17451;SDS011;8843;48.838;9.324;2023-07-29T12:44:18;2.17;;;1.43;;
17451;SDS011;8843;48.838;9.324;2023-07-29T12:46:45;1.57;;;1.20;;
17451;SDS011;8843;48.838;9.324;2023-07-29T12:49:12;3.70;;;1.40;;
17451;SDS011;8843;48.838;9.324;2023-07-29T12:51:39;1.57;;;1.47;;
17451;SDS011;8843;48.838;9.324;2023-07-29T12:54:06;1.60;;;1.50;;
17451;SDS011;8843;48.838;9.324;2023-07-29T12:56:33;3.13;;;1.57;;
17451;SDS011;8843;48.838;9.324;2023-07-29T12:59:00;1.40;;;1.30;;
17451;SDS011;8843;48.838;9.324;2023-07-29T13:01:30;1.93;;;1.70;;
17451;SDS011;8843;48.838;9.324;2023-07-29T13:03:56;1.60;;;1.50;;
17451;SDS011;8843;48.838;9.324;2023-07-29T13:06:23;1.77;;;1.63;;
17451;SDS011;8843;48.838;9.324;2023-07-29T13:08:50;2.20;;;1.80;;
17451;SDS011;8843;48.838;9.324;2023-07-29T13:11:18;1.60;;;1.43;;
17451;SDS011;8843;48.838;9.324;2023-07-29T13:13:45;1.60;;;1.50;;
17451;SDS011;8843;48.838;9.324;2023-07-29T13:16:12;1.87;;;1.63;;
17451;SDS011;8843;48.838;9.324;2023-07-29T13:18:40;1.40;;;1.30;;
17451;SDS011;8843;48.838;9.324;2023-07-29T13:21:09;1.40;;;1.30;;
17451;SDS011;8843;48.838;9.324;2023-07-29T13:23:36;2.00;;;1.47;;
17451;SDS011;8843;48.838;9.324;2023-07-29T13:26:02;1.50;;;1.40;;
17451;SDS011;8843;48.838;9.324;2023-07-29T13:28:29;1.70;;;1.60;;
17451;SDS011;8843;48.838;9.324;2023-07-29T13:30:56;3.27;;;1.47;;
17451;SDS011;8843;48.838;9.324;2023-07-29T13:33:23;1.60;;;1.50;;
17451;SDS011;8843;48.838;9.324;2023-07-29T13:35:51;2.67;;;1.40;;
17451;SDS011;8843;48.838;9.324;2023-07-29T13:38:18;1.77;;;1.43;;
17451;SDS011;8843;48.838;9.324;2023-07-29T13:40:46;1.60;;;1.40;;
17451;SDS011;8843;48.838;9.324;2023-07-29T13:43:15;1.70;;;1.60;;
17451;SDS011;8843;48.838;9.324;2023-07-29T13:45:42;1.50;;;1.40;;
17451;SDS011;8843;48.838;9.324;2023-07-29T13:48:09;2.07;;;1.60;;
17451;SDS011;8843;48.838;9.324;2023-07-29T13:50:36;1.33;;;1.23;;
17451;SDS011;8843;48.838;9.324;2023-07-29T13:53:04;1.90;;;1.70;;
17451;SDS011;8843;48.838;9.324;2023-07-29T13:55:31;1.63;;;1.50;;
17451;SDS011;8843;48.838;9.324;2023-07-29T13:57:58;1.67;;;1.57;;
17451;SDS011;8843;48.838;9.324;2023-07-29T14:00:25;1.77;;;1.47;;
17451;SDS011;8843;48.838;9.324;2023-07-29T14:02:52;2.53;;;1.67;;
17451;SDS011;8843;48.838;9.324;2023-07-29T14:05:19;1.40;;;1.30;;
17451;SDS011;8843;48.838;9.324;2023-07-29T14:07:46;1.90;;;1.50;;
17451;SDS011;8843;48.838;9.324;2023-07-29T14:10:15;1.83;;;1.50;;
17451;SDS011;8843;48.838;9.324;2023-07-29T14:12:42;3.00;;;1.53;;
17451;SDS011;8843;48.838;9.324;2023-07-29T14:15:09;1.90;;;1.70;;
17451;SDS011;8843;48.838;9.324;2023-07-29T14:17:36;1.77;;;1.60;;
17451;SDS011;8843;48.838;9.324;2023-07-29T14:20:03;2.00;;;1.80;;
17451;SDS011;8843;48.838;9.324;2023-07-29T14:22:30;2.40;;;2.20;;
17451;SDS011;8843;48.838;9.324;2023-07-29T14:24:57;3.00;;;1.40;;
17451;SDS011;8843;48.838;9.324;2023-07-29T14:27:25;1.80;;;1.40;;
17451;SDS011;8843;48.838;9.324;2023-07-29T14:29:52;1.80;;;1.70;;
17451;SDS011;8843;48.838;9.324;2023-07-29T14:32:19;2.07;;;1.40;;
17451;SDS011;8843;48.838;9.324;2023-07-29T14:34:46;1.93;;;1.70;;
17451;SDS011;8843;48.838;9.324;2023-07-29T14:37:14;2.27;;;1.80;;
17451;SDS011;8843;48.838;9.324;2023-07-29T14:39:40;2.23;;;1.80;;
17451;SDS011;8843;48.838;9.324;2023-07-29T14:42:07;1.87;;;1.40;;
17451;SDS011;8843;48.838;9.324;2023-07-29T14:44:36;1.73;;;1.40;;
17451;SDS011;8843;48.838;9.324;2023-07-29T14:47:03;1.83;;;1.60;;
17451;SDS011;8843;48.838;9.324;2023-07-29T14:49:30;1.80;;;1.70;;
17451;SDS011;8843;48.838;9.324;2023-07-29T14:51:57;2.00;;;1.90;;
17451;SDS011;8843;48.838;9.324;2023-07-29T14:54:23;2.83;;;1.70;;
17451;SDS011;8843;48.838;9.324;2023-07-29T14:56:50;2.30;;;1.70;;
17451;SDS011;8843;48.838;9.324;2023-07-29T14:59:17;1.93;;;1.70;;
17451;SDS011;8843;48.838;9.324;2023-07-29T15:01:45;2.13;;;1.80;;
17451;SDS011;8843;48.838;9.324;2023-07-29T15:04:12;1.90;;;1.70;;
17451;SDS011;8843;48.838;9.324;2023-07-29T15:06:39;1.53;;;1.37;;